createdAt,value
2022-12-22T00:01:57.960Z,25.40
2022-12-22T00:04:47.898Z,25.55
2022-12-22T00:07:36.343Z,25.50
2022-12-22T00:10:22.853Z,25.58
2022-12-22T00:13:08.298Z,25.90
2022-12-22T00:15:54.668Z,25.63
2022-12-22T00:18:40.277Z,26.20
2022-12-22T00:21:31.228Z,25.52
2022-12-22T00:24:18.706Z,26.08
2022-12-22T00:27:05.135Z,26.55
2022-12-22T00:29:55.912Z,27.75
2022-12-22T00:32:42.470Z,27.73
2022-12-22T00:35:32.555Z,27.38
2022-12-22T00:38:19.659Z,26.83
2022-12-22T00:41:05.084Z,26.88
2022-12-22T00:43:50.929Z,28.17
2022-12-22T00:46:37.717Z,27.92
2022-12-22T00:49:25.406Z,27.25
2022-12-22T00:52:10.945Z,27.83
2022-12-22T00:54:58.033Z,27.48
2022-12-22T00:57:45.435Z,27.85
2022-12-22T01:00:34.577Z,27.77
2022-12-22T01:03:23.495Z,29.40
2022-12-22T01:06:09.146Z,27.85
2022-12-22T01:08:57.688Z,28.85
2022-12-22T01:11:48.941Z,28.98
2022-12-22T01:14:35.602Z,29.27
2022-12-22T01:17:21.515Z,28.00
2022-12-22T01:20:09.591Z,29.35
2022-12-22T01:22:57.679Z,29.27
2022-12-22T01:25:43.694Z,28.58
2022-12-22T01:28:32.764Z,28.75
2022-12-22T01:31:34.404Z,30.25
2022-12-22T01:34:20.109Z,29.02
2022-12-22T01:37:05.424Z,30.45
2022-12-22T01:39:50.801Z,28.60
2022-12-22T01:42:36.401Z,29.48
2022-12-22T01:45:38.231Z,29.00
2022-12-22T01:48:24.453Z,27.67
2022-12-22T01:51:10.345Z,28.58
2022-12-22T01:53:55.916Z,29.15
2022-12-22T01:56:41.625Z,29.00
2022-12-22T01:59:27.306Z,28.02
2022-12-22T02:02:15.338Z,29.65
2022-12-22T02:05:05.571Z,26.98
2022-12-22T02:08:12.728Z,27.63
2022-12-22T02:11:38.643Z,27.67
2022-12-22T02:14:33.406Z,29.35
2022-12-22T02:17:26.646Z,29.10
2022-12-22T02:20:32.187Z,27.02
2022-12-22T02:23:28.674Z,28.13
2022-12-22T02:26:19.067Z,29.48
2022-12-22T02:29:11.276Z,29.23
2022-12-22T02:31:58.609Z,29.58
2022-12-22T02:34:49.919Z,28.77
2022-12-22T02:37:47.670Z,32.60
2022-12-22T02:40:41.380Z,30.17
2022-12-22T02:43:41.905Z,30.08
2022-12-22T02:46:38.563Z,31.23
2022-12-22T02:49:34.881Z,27.52
2022-12-22T02:52:40.048Z,24.92
2022-12-22T02:55:37.046Z,28.80
2022-12-22T02:58:22.992Z,27.48
2022-12-22T03:01:09.280Z,30.20
2022-12-22T03:03:56.806Z,30.65
2022-12-22T03:06:42.462Z,29.88
2022-12-22T03:09:28.010Z,28.38
2022-12-22T03:12:13.567Z,28.67
2022-12-22T03:14:59.261Z,27.23
2022-12-22T03:17:45.312Z,26.30
2022-12-22T03:20:32.156Z,27.65
2022-12-22T03:23:25.885Z,28.27
2022-12-22T03:25:55.917Z,27.27
2022-12-22T03:28:26.625Z,27.40
2022-12-22T03:30:56.843Z,28.08
2022-12-22T03:33:24.982Z,27.10
2022-12-22T03:35:54.539Z,28.63
2022-12-22T03:38:23.586Z,28.08
2022-12-22T03:40:51.843Z,29.38
2022-12-22T03:43:43.316Z,29.27
2022-12-22T03:46:32.147Z,29.38
2022-12-22T03:49:15.238Z,28.85
2022-12-22T03:51:50.069Z,27.38
2022-12-22T03:54:20.295Z,29.67
2022-12-22T03:56:52.158Z,28.67
2022-12-22T03:59:20.826Z,29.23
2022-12-22T04:02:00.087Z,29.33
2022-12-22T04:04:28.795Z,29.17
2022-12-22T04:07:00.822Z,27.60
2022-12-22T04:09:29.523Z,28.77
2022-12-22T04:12:18.078Z,28.15
2022-12-22T04:14:46.225Z,26.38
2022-12-22T04:17:14.523Z,26.42
2022-12-22T04:19:42.752Z,28.40
2022-12-22T04:22:14.021Z,25.45
2022-12-22T04:24:42.450Z,27.67
2022-12-22T04:27:10.616Z,26.52
2022-12-22T04:29:39.131Z,27.60
2022-12-22T04:32:07.312Z,27.08
2022-12-22T04:34:35.662Z,27.50
2022-12-22T04:37:13.004Z,24.95
2022-12-22T04:39:54.635Z,24.45
2022-12-22T04:42:28.115Z,25.48
2022-12-22T04:44:57.425Z,23.73
2022-12-22T04:47:25.724Z,25.30
2022-12-22T04:49:55.841Z,24.40
2022-12-22T04:52:24.222Z,23.55
2022-12-22T04:54:55.733Z,25.02
2022-12-22T04:57:24.194Z,22.73
2022-12-22T04:59:52.960Z,20.75
2022-12-22T05:02:21.242Z,22.65
2022-12-22T05:04:49.405Z,23.80
2022-12-22T05:07:17.562Z,22.23
2022-12-22T05:09:48.528Z,22.23
2022-12-22T05:12:35.518Z,21.58
2022-12-22T05:15:06.654Z,20.83
2022-12-22T05:17:34.828Z,21.77
2022-12-22T05:20:03.038Z,21.45
2022-12-22T05:22:31.216Z,20.15
2022-12-22T05:25:00.121Z,17.45
2022-12-22T05:27:32.635Z,18.77
2022-12-22T05:30:01.077Z,19.40
2022-12-22T05:32:34.484Z,18.38
2022-12-22T05:35:03.409Z,18.63
2022-12-22T05:37:34.796Z,19.52
2022-12-22T05:40:03.163Z,20.00
2022-12-22T05:42:39.647Z,19.70
2022-12-22T05:45:13.303Z,19.17
2022-12-22T05:47:42.045Z,18.65
2022-12-22T05:50:12.469Z,18.92
2022-12-22T05:52:42.733Z,18.45
2022-12-22T05:55:14.016Z,17.88
2022-12-22T05:57:44.287Z,19.50
2022-12-22T06:00:15.212Z,19.23
2022-12-22T06:02:47.091Z,19.40
2022-12-22T06:05:16.418Z,20.13
2022-12-22T06:07:45.797Z,19.08
2022-12-22T06:10:14.829Z,19.15
2022-12-22T06:12:53.765Z,19.35
2022-12-22T06:15:22.676Z,19.25
2022-12-22T06:17:50.868Z,19.25
2022-12-22T06:20:19.341Z,18.70
2022-12-22T06:22:47.791Z,19.60
2022-12-22T06:25:18.820Z,18.45
2022-12-22T06:27:50.906Z,17.67
2022-12-22T06:30:24.489Z,17.70
2022-12-22T06:32:55.727Z,17.45
2022-12-22T06:35:23.813Z,16.67
2022-12-22T06:37:55.413Z,17.67
2022-12-22T06:40:23.803Z,17.60
2022-12-22T06:43:16.122Z,15.95
2022-12-22T06:45:45.811Z,15.90
2022-12-22T06:48:14.727Z,16.25
2022-12-22T06:50:44.189Z,17.10
2022-12-22T06:53:12.741Z,15.43
2022-12-22T06:55:43.409Z,16.33
2022-12-22T06:58:16.856Z,16.08
2022-12-22T07:00:48.494Z,16.00
2022-12-22T07:03:19.268Z,16.98
2022-12-22T07:05:47.572Z,15.70
2022-12-22T07:08:15.754Z,16.15
2022-12-22T07:10:58.877Z,15.63
2022-12-22T07:13:31.996Z,16.00
2022-12-22T07:16:02.477Z,17.38
2022-12-22T07:18:32.724Z,14.05
2022-12-22T07:21:02.341Z,14.57
2022-12-22T07:23:30.754Z,12.50
2022-12-22T07:25:59.527Z,12.07
2022-12-22T07:28:29.692Z,11.70
2022-12-22T07:31:06.753Z,12.65
2022-12-22T07:33:37.086Z,11.90
2022-12-22T07:36:15.122Z,12.32
2022-12-22T07:38:46.628Z,11.93
2022-12-22T07:41:33.940Z,12.70
2022-12-22T07:44:05.386Z,11.93
2022-12-22T07:46:36.417Z,12.07
2022-12-22T07:49:22.845Z,12.00
2022-12-22T07:51:53.787Z,12.67
2022-12-22T07:54:22.542Z,12.68
2022-12-22T07:56:50.871Z,13.10
2022-12-22T07:59:21.057Z,12.48
2022-12-22T08:01:49.699Z,11.60
2022-12-22T08:04:18.473Z,11.85
2022-12-22T08:06:47.250Z,12.02
2022-12-22T08:09:17.452Z,12.67
2022-12-22T08:11:45.856Z,12.48
2022-12-22T08:14:13.922Z,12.23
2022-12-22T08:16:43.633Z,12.53
2022-12-22T08:19:11.814Z,11.32
2022-12-22T08:21:39.990Z,12.10
2022-12-22T08:24:08.991Z,12.13
2022-12-22T08:26:41.889Z,12.70
2022-12-22T08:29:17.820Z,13.35
2022-12-22T08:31:48.301Z,13.25
2022-12-22T08:34:17.708Z,13.05
2022-12-22T08:36:48.211Z,12.85
2022-12-22T08:39:18.139Z,13.10
2022-12-22T08:41:52.342Z,13.88
2022-12-22T08:44:22.622Z,14.00
2022-12-22T08:46:53.310Z,13.65
2022-12-22T08:49:22.140Z,13.95
2022-12-22T08:51:50.604Z,14.43
2022-12-22T08:54:19.626Z,14.03
2022-12-22T08:56:48.634Z,14.80
2022-12-22T08:59:18.018Z,15.20
2022-12-22T09:01:50.470Z,14.30
2022-12-22T09:04:26.418Z,14.73
2022-12-22T09:06:54.664Z,14.75
2022-12-22T09:09:22.824Z,14.18
2022-12-22T09:11:51.310Z,13.90
2022-12-22T09:14:19.721Z,14.43
2022-12-22T09:16:51.509Z,13.68
2022-12-22T09:19:19.784Z,14.85
2022-12-22T09:21:49.482Z,14.52
2022-12-22T09:24:17.906Z,14.73
2022-12-22T09:26:46.128Z,15.50
2022-12-22T09:29:20.753Z,13.88
2022-12-22T09:31:49.086Z,14.02
2022-12-22T09:34:18.783Z,13.75
2022-12-22T09:36:48.837Z,13.50
2022-12-22T09:39:17.305Z,13.93
2022-12-22T09:41:49.498Z,13.38
2022-12-22T09:44:24.225Z,13.63
2022-12-22T09:46:54.020Z,12.98
2022-12-22T09:49:23.748Z,13.48
2022-12-22T09:51:57.846Z,12.88
2022-12-22T09:54:27.455Z,13.00
2022-12-22T09:56:55.605Z,13.38
2022-12-22T09:59:27.388Z,13.18
2022-12-22T10:02:06.589Z,13.05
2022-12-22T10:04:46.602Z,13.93
2022-12-22T10:07:26.120Z,13.57
2022-12-22T10:09:54.386Z,13.68
2022-12-22T10:12:25.290Z,13.35
2022-12-22T10:14:56.379Z,13.35
2022-12-22T10:17:28.330Z,13.98
2022-12-22T10:20:14.109Z,14.35
2022-12-22T10:22:49.468Z,13.95
2022-12-22T10:25:45.054Z,13.68
2022-12-22T10:28:23.130Z,15.02
2022-12-22T10:30:51.702Z,13.95
2022-12-22T10:33:20.879Z,13.20
2022-12-22T10:35:51.579Z,14.02
2022-12-22T10:38:25.590Z,13.73
2022-12-22T10:41:02.114Z,14.10
2022-12-22T10:43:34.217Z,14.50
2022-12-22T10:46:03.784Z,13.48
2022-12-22T10:48:39.198Z,14.88
2022-12-22T10:51:10.109Z,14.27
2022-12-22T10:53:51.963Z,14.75
2022-12-22T10:56:26.121Z,16.50
2022-12-22T10:58:56.801Z,17.15
2022-12-22T11:01:37.028Z,18.50
2022-12-22T11:04:18.245Z,19.23
2022-12-22T11:06:47.020Z,20.23
2022-12-22T11:09:33.124Z,19.85
2022-12-22T11:12:31.866Z,19.13
2022-12-22T11:15:09.211Z,18.88
2022-12-22T11:17:48.648Z,18.17
2022-12-22T11:24:31.512Z,19.10
2022-12-22T11:27:49.182Z,19.25
2022-12-22T11:31:06.886Z,17.90
2022-12-22T11:34:21.295Z,19.95
2022-12-22T11:37:29.008Z,20.52
2022-12-22T11:40:41.301Z,20.50
2022-12-22T11:43:33.592Z,20.80
2022-12-22T11:46:31.389Z,19.70
2022-12-22T11:49:37.476Z,19.00
2022-12-22T11:52:56.333Z,18.50
2022-12-22T11:55:31.105Z,18.02
2022-12-22T11:58:22.997Z,19.15
2022-12-22T12:01:25.675Z,18.52
2022-12-22T12:05:09.904Z,20.40
2022-12-22T12:08:08.429Z,20.98
2022-12-22T12:14:37.974Z,21.67
2022-12-22T12:21:12.305Z,21.33
2022-12-22T12:23:59.676Z,20.88
2022-12-22T12:27:20.471Z,21.65
2022-12-22T12:30:37.961Z,23.52
2022-12-22T12:36:42.112Z,21.80
2022-12-22T12:43:16.466Z,23.65
2022-12-22T12:46:21.828Z,22.67
2022-12-22T12:48:52.725Z,23.83
2022-12-22T12:52:17.394Z,24.80
2022-12-22T12:55:07.907Z,23.67
2022-12-22T12:58:19.207Z,25.52
2022-12-22T13:01:36.017Z,24.38
2022-12-22T13:04:05.755Z,25.05
2022-12-22T13:07:35.112Z,26.08
2022-12-22T13:13:53.433Z,26.52
2022-12-22T13:16:49.077Z,26.48
2022-12-22T13:19:30.307Z,25.98
2022-12-22T13:24:59.585Z,27.60
2022-12-22T13:27:38.366Z,27.38
2022-12-22T13:30:47.751Z,28.55
2022-12-22T13:33:30.275Z,27.95
2022-12-22T13:35:59.611Z,27.83
2022-12-22T13:38:34.098Z,28.58
2022-12-22T13:41:07.127Z,27.00
2022-12-22T13:43:38.468Z,27.17
2022-12-22T13:46:13.124Z,27.30
2022-12-22T13:48:47.998Z,26.27
2022-12-22T13:51:23.525Z,27.40
2022-12-22T13:54:12.677Z,27.02
2022-12-22T13:56:46.344Z,28.48
2022-12-22T13:59:37.039Z,28.38
2022-12-22T14:02:16.362Z,29.58
2022-12-22T14:04:51.963Z,28.80
2022-12-22T14:07:21.562Z,30.10
2022-12-22T14:09:52.378Z,29.42
2022-12-22T14:12:23.661Z,30.23
2022-12-22T14:14:53.863Z,31.27
2022-12-22T14:17:30.888Z,29.95
2022-12-22T14:20:00.987Z,30.52
2022-12-22T14:22:31.639Z,30.83
2022-12-22T14:25:05.310Z,31.30
2022-12-22T14:27:39.865Z,30.98
2022-12-22T14:30:17.419Z,30.00
2022-12-22T14:33:10.981Z,28.85
2022-12-22T14:35:49.450Z,30.23
2022-12-22T14:38:27.494Z,29.75
2022-12-22T14:41:00.488Z,29.48
2022-12-22T14:43:33.913Z,31.65
2022-12-22T14:46:09.129Z,32.30
2022-12-22T14:48:41.513Z,32.65
2022-12-22T14:51:10.099Z,30.90
2022-12-22T14:53:46.206Z,31.05
2022-12-22T14:56:23.790Z,31.98
2022-12-22T14:58:52.067Z,30.63
2022-12-22T15:01:23.562Z,31.00
2022-12-22T15:04:04.284Z,30.20
2022-12-22T15:06:40.629Z,29.88
2022-12-22T15:09:47.633Z,29.90
2022-12-22T15:12:19.348Z,28.60
2022-12-22T15:14:57.657Z,29.23
2022-12-22T15:17:26.972Z,28.98
2022-12-22T15:20:02.152Z,28.63
2022-12-22T15:22:31.269Z,28.63
2022-12-22T15:25:02.174Z,28.65
2022-12-22T15:27:34.150Z,28.23
2022-12-22T15:30:02.347Z,28.58
2022-12-22T15:32:37.562Z,26.70
2022-12-22T15:35:42.755Z,25.58
2022-12-22T15:38:20.228Z,23.42
2022-12-22T15:40:54.369Z,23.83
2022-12-22T15:43:57.059Z,24.33
2022-12-22T15:46:28.230Z,25.23
2022-12-22T15:48:59.642Z,23.77
2022-12-22T15:51:29.821Z,24.85
2022-12-22T15:54:02.261Z,24.08
2022-12-22T15:56:33.403Z,25.52
2022-12-22T15:59:04.011Z,25.45
2022-12-22T16:01:32.600Z,28.63
2022-12-22T16:04:01.003Z,23.88
2022-12-22T16:06:29.714Z,24.65
2022-12-22T16:09:01.305Z,25.00
2022-12-22T16:11:29.630Z,26.40
2022-12-22T16:14:14.051Z,24.23
2022-12-22T16:16:42.355Z,26.08
2022-12-22T16:19:16.143Z,25.75
2022-12-22T16:21:45.256Z,24.73
2022-12-22T16:24:24.798Z,24.25
2022-12-22T16:26:52.931Z,25.42
2022-12-22T16:29:22.536Z,29.00
2022-12-22T16:31:52.744Z,28.90
2022-12-22T16:34:23.694Z,26.60
2022-12-22T16:36:51.848Z,25.80
2022-12-22T16:39:20.748Z,26.48
2022-12-22T16:42:00.022Z,25.17
2022-12-22T16:47:19.757Z,24.33
2022-12-22T16:49:49.433Z,22.25
2022-12-22T16:52:20.735Z,23.23
2022-12-22T16:54:52.735Z,22.45
2022-12-22T16:57:21.386Z,22.80
2022-12-22T16:59:52.062Z,22.35
2022-12-22T17:02:24.931Z,19.50
2022-12-22T17:04:57.479Z,20.00
2022-12-22T17:07:27.518Z,19.20
2022-12-22T17:10:04.268Z,20.75
2022-12-22T17:12:35.996Z,19.42
2022-12-22T17:15:05.984Z,21.20
2022-12-22T17:17:40.100Z,19.88
2022-12-22T17:20:14.269Z,18.40
2022-12-22T17:22:45.792Z,19.02
2022-12-22T17:25:19.287Z,19.38
2022-12-22T17:27:48.037Z,18.67
2022-12-22T17:30:22.159Z,18.10
2022-12-22T17:32:52.956Z,18.90
2022-12-22T17:35:23.594Z,17.77
2022-12-22T17:37:52.076Z,18.40
2022-12-22T17:40:24.181Z,17.08
2022-12-22T17:42:52.825Z,17.17
2022-12-22T17:45:22.511Z,16.00
2022-12-22T17:47:50.914Z,15.07
2022-12-22T17:50:22.080Z,15.23
2022-12-22T17:52:50.829Z,17.17
2022-12-22T17:56:05.344Z,16.40
2022-12-22T17:58:16.259Z,15.30
2022-12-22T18:00:51.194Z,15.82
2022-12-22T18:03:19.507Z,14.75
2022-12-22T18:05:49.589Z,15.35
2022-12-22T18:08:21.140Z,15.88
2022-12-22T18:10:50.177Z,14.15
2022-12-22T18:13:22.551Z,14.45
2022-12-22T18:15:53.246Z,14.40
2022-12-22T18:18:22.002Z,14.27
2022-12-22T18:21:06.437Z,14.18
2022-12-22T18:23:43.110Z,13.88
2022-12-22T18:26:22.227Z,14.18
2022-12-22T18:28:51.560Z,14.27
2022-12-22T18:31:22.416Z,15.63
2022-12-22T18:33:54.340Z,15.18
2022-12-22T18:36:28.824Z,16.02
2022-12-22T18:39:01.371Z,16.10
2022-12-22T18:41:34.934Z,15.75
2022-12-22T18:44:03.362Z,15.68
2022-12-22T18:46:34.158Z,15.02
2022-12-22T18:49:05.854Z,15.55
2022-12-22T18:51:34.791Z,15.63
2022-12-22T18:54:03.194Z,15.10
2022-12-22T18:56:31.488Z,14.55
2022-12-22T18:59:00.000Z,13.65
2022-12-22T19:01:29.170Z,15.05
2022-12-22T19:04:00.190Z,14.05
2022-12-22T19:06:28.464Z,14.40
2022-12-22T19:08:59.484Z,14.18
2022-12-22T19:11:29.359Z,14.55
2022-12-22T19:13:57.859Z,13.90
2022-12-22T19:16:30.948Z,13.05
2022-12-22T19:19:04.712Z,13.82
2022-12-22T19:21:33.091Z,13.40
2022-12-22T19:24:01.457Z,13.93
2022-12-22T19:26:29.580Z,14.52
2022-12-22T19:29:01.239Z,12.70
2022-12-22T19:31:32.435Z,12.52
2022-12-22T19:34:07.363Z,13.10
2022-12-22T19:36:35.581Z,12.27
2022-12-22T19:39:05.428Z,12.05
2022-12-22T19:41:40.917Z,12.43
2022-12-22T19:44:18.103Z,12.55
2022-12-22T19:46:49.039Z,11.85
2022-12-22T19:51:48.710Z,12.02
2022-12-22T19:54:18.030Z,11.85
2022-12-22T19:56:50.434Z,12.10
2022-12-22T19:59:29.588Z,11.90
2022-12-22T20:01:59.611Z,10.93
2022-12-22T20:04:28.080Z,11.65
2022-12-22T20:06:58.124Z,10.48
2022-12-22T20:09:26.422Z,11.10
2022-12-22T20:11:54.575Z,10.32
2022-12-22T20:14:22.817Z,9.30
2022-12-22T20:16:53.544Z,9.20
2022-12-22T20:19:21.721Z,9.43
2022-12-22T20:21:49.867Z,9.25
2022-12-22T20:24:23.834Z,8.90
2022-12-22T20:26:54.862Z,8.73
2022-12-22T20:29:25.696Z,9.02
2022-12-22T20:31:54.068Z,8.52
2022-12-22T20:34:24.435Z,9.55
2022-12-22T20:36:52.624Z,9.38
2022-12-22T20:39:22.433Z,10.32
2022-12-22T20:41:53.668Z,10.35
2022-12-22T20:44:23.048Z,10.38
2022-12-22T20:46:52.395Z,11.23
2022-12-22T20:49:21.455Z,10.93
2022-12-22T20:51:49.832Z,11.10
2022-12-22T20:54:18.326Z,11.23
2022-12-22T20:56:47.928Z,9.77
2022-12-22T20:59:18.176Z,10.10
2022-12-22T21:01:47.030Z,9.32
2022-12-22T21:04:16.114Z,9.68
2022-12-22T21:06:47.971Z,9.32
2022-12-22T21:09:19.915Z,9.35
2022-12-22T21:11:53.479Z,10.23
2022-12-22T21:14:21.548Z,9.98
2022-12-22T21:16:52.623Z,8.98
2022-12-22T21:19:21.219Z,9.57
2022-12-22T21:21:49.313Z,9.73
2022-12-22T21:24:18.709Z,10.35
2022-12-22T21:26:52.832Z,9.50
2022-12-22T21:29:27.375Z,9.50
2022-12-22T21:32:01.909Z,9.40
2022-12-22T21:34:30.132Z,9.55
2022-12-22T21:37:02.875Z,9.82
2022-12-22T21:39:37.139Z,9.43
2022-12-22T21:42:07.946Z,10.75
2022-12-22T21:44:37.224Z,10.65
2022-12-22T21:47:07.832Z,9.32
2022-12-22T21:49:36.060Z,9.80
2022-12-22T21:52:04.431Z,9.90
2022-12-22T21:54:32.591Z,10.13
2022-12-22T21:57:00.890Z,10.00
2022-12-22T21:59:30.584Z,9.27
2022-12-22T22:01:59.074Z,8.82
2022-12-22T22:04:27.735Z,10.15
2022-12-22T22:06:55.814Z,10.00
2022-12-22T22:09:23.873Z,9.52
2022-12-22T22:12:11.762Z,10.45
2022-12-22T22:14:44.583Z,9.98
2022-12-22T22:17:13.212Z,10.35
2022-12-22T22:19:44.178Z,10.32
2022-12-22T22:22:12.263Z,11.10
2022-12-22T22:24:40.375Z,10.98
2022-12-22T22:27:08.846Z,10.82
2022-12-22T22:29:37.179Z,11.07
2022-12-22T22:32:07.657Z,10.95
2022-12-22T22:34:35.799Z,10.80
2022-12-22T22:37:04.072Z,10.27
2022-12-22T22:39:32.143Z,10.90
2022-12-22T22:42:00.343Z,10.52
2022-12-22T22:44:28.494Z,10.07
2022-12-22T22:46:58.717Z,10.95
2022-12-22T22:49:29.037Z,10.18
2022-12-22T22:51:59.616Z,10.43
2022-12-22T22:54:29.737Z,11.13
2022-12-22T22:57:01.087Z,10.65
2022-12-22T22:59:29.379Z,10.50
2022-12-22T23:01:58.113Z,10.80
2022-12-22T23:04:28.257Z,10.00
2022-12-22T23:06:58.985Z,9.93
2022-12-22T23:09:27.285Z,10.75
2022-12-22T23:11:58.692Z,10.32
2022-12-22T23:14:27.190Z,10.45
2022-12-22T23:16:55.793Z,10.52
2022-12-22T23:19:29.791Z,10.40
2022-12-22T23:22:01.357Z,10.88
2022-12-22T23:24:31.674Z,11.10
2022-12-22T23:27:03.300Z,10.73
2022-12-22T23:29:32.505Z,11.43
2022-12-22T23:32:04.146Z,11.32
2022-12-22T23:34:38.080Z,11.00
2022-12-22T23:37:06.709Z,12.63
2022-12-22T23:39:35.183Z,12.55
2022-12-22T23:42:05.521Z,13.05
2022-12-22T23:44:34.088Z,12.35
2022-12-22T23:47:05.584Z,12.30
2022-12-22T23:49:35.387Z,12.50
2022-12-22T23:52:03.625Z,12.70
2022-12-22T23:54:31.978Z,11.57
2022-12-22T23:57:00.731Z,13.05
2022-12-22T23:59:29.290Z,13.57
